This is the latest recevied weather packets stored in our database for station/object HR1LRC-21. If no packets are shown the sender has not sent any weather packets the latest 1 day(s).
| Time | Temp. | Humidity | Pressure | Rain* | Wind** | Luminosity | Snow |
|---|---|---|---|---|---|---|---|
| 1778094015 | 27.78° C | 26% | 1011 hPa | 0 mm | - | - | - |
| 1778092814 | 27.78° C | 26% | 1011 hPa | 0 mm | - | - | - |
| 1778092213 | 27.22° C | 28% | 1011 hPa | 0 mm | - | - | - |
| 1778091012 | 26.67° C | 33% | 1012 hPa | 0 mm | - | - | - |
| 1778085560 | 24.44° C | 39% | 1013 hPa | 0 mm | - | - | - |
| 1778083774 | 23.33° C | 46% | 1014 hPa | 0 mm | - | - | - |
| 1778081972 | 22.78° C | 54% | 1014 hPa | 0 mm | - | - | - |
| 1778080771 | 22.78° C | 54% | 1015 hPa | 0 mm | - | - | - |
| 1778080170 | 22.22° C | 55% | 1015 hPa | 0 mm | - | - | - |
| 1778078969 | 22.22° C | 55% | 1015 hPa | 0 mm | - | - | - |
| 1778077167 | 20.56° C | 63% | 1015 hPa | 0 mm | - | - | - |
| 1778075966 | 20° C | 63% | 1015 hPa | 0 mm | - | - | - |
| 1778074765 | 18.89° C | 67% | 1015 hPa | 0 mm | - | - | - |
| 1778074164 | 18.89° C | 67% | 1015 hPa | 0 mm | - | - | - |
| 1778072963 | 18.89° C | 67% | 1015 hPa | 0 mm | - | - | - |
| 1778072362 | 18.89° C | 67% | 1015 hPa | 0 mm | - | - | - |
| 1778069960 | 18.89° C | 67% | 1015 hPa | 0 mm | - | - | - |
| 1778068158 | 18.89° C | 67% | 1015 hPa | 0 mm | - | - | - |
| 1778066957 | 18.89° C | 67% | 1015 hPa | 0 mm | - | - | - |
| 1778065756 | 18.89° C | 67% | 1015 hPa | 0 mm | - | - | - |
| 1778064555 | 18.89° C | 67% | 1015 hPa | 0 mm | - | - | - |
| 1778063354 | 18.89° C | 67% | 1015 hPa | 0 mm | - | - | - |
| 1778061552 | 18.89° C | 67% | 1014 hPa | 0 mm | - | - | - |
| 1778060351 | 18.89° C | 67% | 1014 hPa | 0 mm | - | - | - |
| 1778058549 | 18.89° C | 67% | 1014 hPa | 0 mm | - | - | - |
* Rain latest hour (hover to see other rain measurements)
** Current wind speed in m/s (hover to see current wind gust speed)